sensor_id;sensor_type;location;lat;lon;timestamp;pressure;altitude;pressure_sealevel;temperature;humidity
71735;BME280;59577;52.122;5.406;2023-03-14T00:02:04;98927.66;;;9.36;95.52
71735;BME280;59577;52.122;5.406;2023-03-14T00:04:31;98936.19;;;9.34;95.53
71735;BME280;59577;52.122;5.406;2023-03-14T00:07:03;98933.06;;;9.32;95.53
71735;BME280;59577;52.122;5.406;2023-03-14T00:09:30;98934.63;;;9.33;95.40
71735;BME280;59577;52.122;5.406;2023-03-14T00:11:56;98933.88;;;9.33;95.59
71735;BME280;59577;52.122;5.406;2023-03-14T00:14:25;98933.88;;;9.33;95.68
71735;BME280;59577;52.122;5.406;2023-03-14T00:16:56;98932.69;;;9.34;95.68
71735;BME280;59577;52.122;5.406;2023-03-14T00:19:37;98924.59;;;9.34;95.71
71735;BME280;59577;52.122;5.406;2023-03-14T00:22:04;98927.66;;;9.36;95.72
71735;BME280;59577;52.122;5.406;2023-03-14T00:24:38;98918.78;;;9.39;95.35
71735;BME280;59577;52.122;5.406;2023-03-14T00:27:05;98918.38;;;9.44;95.22
71735;BME280;59577;52.122;5.406;2023-03-14T00:29:36;98914.94;;;9.44;94.26
71735;BME280;59577;52.122;5.406;2023-03-14T00:32:03;98919.94;;;9.45;94.16
71735;BME280;59577;52.122;5.406;2023-03-14T00:34:33;98916.06;;;9.50;93.47
71735;BME280;59577;52.122;5.406;2023-03-14T00:37:00;98921.06;;;9.51;92.98
71735;BME280;59577;52.122;5.406;2023-03-14T00:39:29;98912.19;;;9.54;92.41
71735;BME280;59577;52.122;5.406;2023-03-14T00:42:00;98927.63;;;9.57;91.61
71735;BME280;59577;52.122;5.406;2023-03-14T00:44:27;98937.63;;;9.64;91.56
71735;BME280;59577;52.122;5.406;2023-03-14T00:47:18;98933.72;;;9.69;90.84
71735;BME280;59577;52.122;5.406;2023-03-14T00:49:45;98931.84;;;9.66;90.69
71735;BME280;59577;52.122;5.406;2023-03-14T00:52:14;98926.44;;;9.62;90.34
71735;BME280;59577;52.122;5.406;2023-03-14T00:54:41;98925.28;;;9.59;90.35
71735;BME280;59577;52.122;5.406;2023-03-14T00:57:08;98927.22;;;9.59;90.10
71735;BME280;59577;52.122;5.406;2023-03-14T00:59:41;98925.69;;;9.58;90.03
71735;BME280;59577;52.122;5.406;2023-03-14T01:02:21;98938.03;;;9.59;90.10
71735;BME280;59577;52.122;5.406;2023-03-14T01:05:01;98939.19;;;9.58;90.19
71735;BME280;59577;52.122;5.406;2023-03-14T01:07:29;98928.38;;;9.54;90.52
71735;BME280;59577;52.122;5.406;2023-03-14T01:09:57;98942.28;;;9.56;90.63
71735;BME280;59577;52.122;5.406;2023-03-14T01:12:33;98951.94;;;9.54;90.30
71735;BME280;59577;52.122;5.406;2023-03-14T01:15:00;98946.94;;;9.49;90.83
71735;BME280;59577;52.122;5.406;2023-03-14T01:17:26;98960.44;;;9.45;91.08
71735;BME280;59577;52.122;5.406;2023-03-14T01:20:02;98948.50;;;9.39;91.88
71735;BME280;59577;52.122;5.406;2023-03-14T01:22:31;98953.53;;;9.33;91.83
71735;BME280;59577;52.122;5.406;2023-03-14T01:24:59;98966.28;;;9.29;92.45
71735;BME280;59577;52.122;5.406;2023-03-14T01:27:30;98963.97;;;9.20;93.47
71735;BME280;59577;52.122;5.406;2023-03-14T01:29:57;98969.38;;;9.10;94.66
71735;BME280;59577;52.122;5.406;2023-03-14T01:32:24;98962.03;;;9.03;95.28
71735;BME280;59577;52.122;5.406;2023-03-14T01:34:55;98955.13;;;8.95;96.25
71735;BME280;59577;52.122;5.406;2023-03-14T01:37:36;98958.22;;;8.90;97.46
71735;BME280;59577;52.122;5.406;2023-03-14T01:40:04;98960.13;;;8.89;97.22
71735;BME280;59577;52.122;5.406;2023-03-14T01:42:32;98969.00;;;8.90;97.47
71735;BME280;59577;52.122;5.406;2023-03-14T01:54:22;98939.31;;;8.79;99.13
71735;BME280;59577;52.122;5.406;2023-03-14T01:57:08;98928.94;;;8.77;99.38
71735;BME280;59577;52.122;5.406;2023-03-14T01:59:54;98923.13;;;8.75;99.53
71735;BME280;59577;52.122;5.406;2023-03-14T02:02:24;98921.59;;;8.74;99.18
71735;BME280;59577;52.122;5.406;2023-03-14T02:04:54;98915.44;;;8.74;99.36
71735;BME280;59577;52.122;5.406;2023-03-14T02:07:51;98923.13;;;8.72;99.94
71735;BME280;59577;52.122;5.406;2023-03-14T02:10:38;98927.00;;;8.74;99.42
71735;BME280;59577;52.122;5.406;2023-03-14T02:13:24;98920.81;;;8.74;99.01
71735;BME280;59577;52.122;5.406;2023-03-14T02:15:52;98916.97;;;8.75;99.09
71735;BME280;59577;52.122;5.406;2023-03-14T02:18:29;98917.75;;;8.75;99.24
71735;BME280;59577;52.122;5.406;2023-03-14T02:21:00;98916.97;;;8.75;98.94
71735;BME280;59577;52.122;5.406;2023-03-14T02:26:15;98908.88;;;8.75;98.57
71735;BME280;59577;52.122;5.406;2023-03-14T02:28:54;98908.88;;;8.75;98.17
71735;BME280;59577;52.122;5.406;2023-03-14T02:31:22;98915.44;;;8.74;98.35
71735;BME280;59577;52.122;5.406;2023-03-14T02:33:50;98915.03;;;8.75;98.87
71735;BME280;59577;52.122;5.406;2023-03-14T02:36:19;98905.44;;;8.74;98.64
71735;BME280;59577;52.122;5.406;2023-03-14T02:39:14;98909.28;;;8.73;98.40
71735;BME280;59577;52.122;5.406;2023-03-14T02:41:43;98906.56;;;8.73;98.23
71735;BME280;59577;52.122;5.406;2023-03-14T02:44:13;98906.56;;;8.73;98.56
71735;BME280;59577;52.122;5.406;2023-03-14T02:46:41;98907.34;;;8.74;98.19
71735;BME280;59577;52.122;5.406;2023-03-14T02:49:12;98903.50;;;8.75;98.14
71735;BME280;59577;52.122;5.406;2023-03-14T02:51:41;98895.78;;;8.73;97.98
71735;BME280;59577;52.122;5.406;2023-03-14T02:54:23;98891.94;;;8.74;98.01
71735;BME280;59577;52.122;5.406;2023-03-14T02:56:52;98884.59;;;8.75;98.32
71735;BME280;59577;52.122;5.406;2023-03-14T02:59:22;98890.00;;;8.75;97.95
71735;BME280;59577;52.122;5.406;2023-03-14T03:01:50;98889.25;;;8.74;98.53
71735;BME280;59577;52.122;5.406;2023-03-14T03:04:17;98884.63;;;8.71;98.65
71735;BME280;59577;52.122;5.406;2023-03-14T03:06:43;98881.91;;;8.71;98.84
71735;BME280;59577;52.122;5.406;2023-03-14T03:09:10;98878.84;;;8.73;98.86
71735;BME280;59577;52.122;5.406;2023-03-14T03:11:47;98882.69;;;8.72;98.89
71735;BME280;59577;52.122;5.406;2023-03-14T03:14:14;98885.75;;;8.66;98.60
71735;BME280;59577;52.122;5.406;2023-03-14T03:16:41;98890.00;;;8.68;98.98
71735;BME280;59577;52.122;5.406;2023-03-14T03:19:13;98883.84;;;8.67;98.34
71735;BME280;59577;52.122;5.406;2023-03-14T03:21:40;98876.53;;;8.68;99.09
71735;BME280;59577;52.122;5.406;2023-03-14T03:24:14;98877.66;;;8.70;98.53
71735;BME280;59577;52.122;5.406;2023-03-14T03:26:40;98865.34;;;8.73;98.54
71735;BME280;59577;52.122;5.406;2023-03-14T03:29:09;98869.97;;;8.72;98.64
71735;BME280;59577;52.122;5.406;2023-03-14T03:31:58;98868.44;;;8.68;98.82
71735;BME280;59577;52.122;5.406;2023-03-14T03:34:24;98872.69;;;8.69;98.73
71735;BME280;59577;52.122;5.406;2023-03-14T03:36:58;98867.28;;;8.69;98.34
71735;BME280;59577;52.122;5.406;2023-03-14T03:39:24;98871.88;;;8.72;98.39
71735;BME280;59577;52.122;5.406;2023-03-14T03:41:51;98859.97;;;8.73;98.39
71735;BME280;59577;52.122;5.406;2023-03-14T03:44:17;98860.72;;;8.73;98.04
71735;BME280;59577;52.122;5.406;2023-03-14T03:46:44;98849.16;;;8.73;98.01
71735;BME280;59577;52.122;5.406;2023-03-14T03:49:11;98853.38;;;8.74;97.75
71735;BME280;59577;52.122;5.406;2023-03-14T03:51:41;98846.47;;;8.76;97.59
71735;BME280;59577;52.122;5.406;2023-03-14T03:54:08;98858.00;;;8.80;96.84
71735;BME280;59577;52.122;5.406;2023-03-14T03:56:35;98852.59;;;8.84;96.64
71735;BME280;59577;52.122;5.406;2023-03-14T03:59:01;98859.94;;;8.83;96.43
71735;BME280;59577;52.122;5.406;2023-03-14T04:01:44;98853.38;;;8.84;96.57
71735;BME280;59577;52.122;5.406;2023-03-14T04:04:14;98856.47;;;8.87;96.03
71735;BME280;59577;52.122;5.406;2023-03-14T04:06:41;98861.09;;;8.93;95.96
71735;BME280;59577;52.122;5.406;2023-03-14T04:09:09;98845.66;;;8.97;95.02
71735;BME280;59577;52.122;5.406;2023-03-14T04:11:36;98853.34;;;8.99;95.23
71735;BME280;59577;52.122;5.406;2023-03-14T04:14:04;98851.81;;;8.98;94.89
71735;BME280;59577;52.122;5.406;2023-03-14T04:16:30;98851.81;;;8.98;95.16
71735;BME280;59577;52.122;5.406;2023-03-14T04:19:01;98858.00;;;8.98;94.55
71735;BME280;59577;52.122;5.406;2023-03-14T04:21:28;98856.44;;;9.01;94.59
71735;BME280;59577;52.122;5.406;2023-03-14T04:23:54;98857.22;;;9.01;94.54
71735;BME280;59577;52.122;5.406;2023-03-14T04:26:21;98860.69;;;9.02;94.52
71735;BME280;59577;52.122;5.406;2023-03-14T04:28:48;98860.66;;;9.06;94.08
71735;BME280;59577;52.122;5.406;2023-03-14T04:31:18;98854.50;;;9.05;93.98
71735;BME280;59577;52.122;5.406;2023-03-14T04:33:47;98860.66;;;9.06;94.37
71735;BME280;59577;52.122;5.406;2023-03-14T04:36:14;98856.41;;;9.08;94.25
71735;BME280;59577;52.122;5.406;2023-03-14T04:38:41;98851.00;;;9.12;93.63
71735;BME280;59577;52.122;5.406;2023-03-14T04:41:09;98842.13;;;9.15;93.84
71735;BME280;59577;52.122;5.406;2023-03-14T04:43:37;98844.44;;;9.13;93.57
71735;BME280;59577;52.122;5.406;2023-03-14T04:46:04;98846.38;;;9.12;93.98
71735;BME280;59577;52.122;5.406;2023-03-14T04:48:35;98833.28;;;9.11;93.65
71735;BME280;59577;52.122;5.406;2023-03-14T04:51:02;98833.66;;;9.13;93.38
71735;BME280;59577;52.122;5.406;2023-03-14T04:53:50;98843.66;;;9.16;93.47
71735;BME280;59577;52.122;5.406;2023-03-14T04:56:19;98839.03;;;9.16;93.37
71735;BME280;59577;52.122;5.406;2023-03-14T04:59:07;98836.72;;;9.18;93.60
71735;BME280;59577;52.122;5.406;2023-03-14T05:01:35;98834.00;;;9.18;93.32
71735;BME280;59577;52.122;5.406;2023-03-14T05:04:01;98835.56;;;9.19;93.71
71735;BME280;59577;52.122;5.406;2023-03-14T05:06:29;98835.56;;;9.19;93.34
71735;BME280;59577;52.122;5.406;2023-03-14T05:08:55;98829.78;;;9.17;93.61
71735;BME280;59577;52.122;5.406;2023-03-14T05:11:22;98841.34;;;9.14;94.50
71735;BME280;59577;52.122;5.406;2023-03-14T05:13:49;98835.59;;;9.09;94.88
71735;BME280;59577;52.122;5.406;2023-03-14T05:16:17;98844.84;;;9.04;95.40
71735;BME280;59577;52.122;5.406;2023-03-14T05:18:46;98839.50;;;8.97;96.46
71735;BME280;59577;52.122;5.406;2023-03-14T05:38:33;98826.44;;;8.56;100.00
71735;BME280;59577;52.122;5.406;2023-03-14T05:40:59;98829.91;;;8.53;100.00
71735;BME280;59577;52.122;5.406;2023-03-14T05:43:28;98826.09;;;8.50;100.00
71735;BME280;59577;52.122;5.406;2023-03-14T05:45:55;98813.00;;;8.45;100.00
71735;BME280;59577;52.122;5.406;2023-03-14T05:48:22;98822.22;;;8.44;100.00
71735;BME280;59577;52.122;5.406;2023-03-14T05:50:55;98823.38;;;8.39;100.00
71735;BME280;59577;52.122;5.406;2023-03-14T05:53:22;98821.44;;;8.36;100.00
71735;BME280;59577;52.122;5.406;2023-03-14T05:55:52;98822.59;;;8.35;100.00
71735;BME280;59577;52.122;5.406;2023-03-14T05:58:23;98819.88;;;8.35;100.00
71735;BME280;59577;52.122;5.406;2023-03-14T06:00:50;98815.25;;;8.32;100.00
71735;BME280;59577;52.122;5.406;2023-03-14T06:03:17;98816.81;;;8.29;100.00
71735;BME280;59577;52.122;5.406;2023-03-14T06:08:32;98816.44;;;8.31;100.00
71735;BME280;59577;52.122;5.406;2023-03-14T06:11:22;98807.59;;;8.31;100.00
71735;BME280;59577;52.122;5.406;2023-03-14T06:16:43;98823.34;;;8.32;100.00
71735;BME280;59577;52.122;5.406;2023-03-14T06:19:10;98824.53;;;8.35;100.00
71735;BME280;59577;52.122;5.406;2023-03-14T06:21:38;98826.84;;;8.36;100.00
71735;BME280;59577;52.122;5.406;2023-03-14T06:24:04;98821.06;;;8.38;100.00
71735;BME280;59577;52.122;5.406;2023-03-14T06:26:37;98827.59;;;8.37;100.00
71735;BME280;59577;52.122;5.406;2023-03-14T06:29:03;98827.59;;;8.37;100.00
71735;BME280;59577;52.122;5.406;2023-03-14T06:31:31;98835.69;;;8.37;100.00
71735;BME280;59577;52.122;5.406;2023-03-14T06:33:59;98849.91;;;8.37;100.00
71735;BME280;59577;52.122;5.406;2023-03-14T06:36:25;98853.03;;;8.36;100.00
71735;BME280;59577;52.122;5.406;2023-03-14T06:39:01;98880.38;;;8.34;100.00
71735;BME280;59577;52.122;5.406;2023-03-14T06:41:34;98893.47;;;8.36;100.00
71735;BME280;59577;52.122;5.406;2023-03-14T06:44:02;98908.09;;;8.38;100.00
71735;BME280;59577;52.122;5.406;2023-03-14T06:46:29;98905.75;;;8.33;100.00
71735;BME280;59577;52.122;5.406;2023-03-14T06:49:24;98928.84;;;8.27;100.00
71735;BME280;59577;52.122;5.406;2023-03-14T06:52:00;98941.19;;;8.21;100.00
71735;BME280;59577;52.122;5.406;2023-03-14T07:21:28;99025.44;;;8.03;100.00
71735;BME280;59577;52.122;5.406;2023-03-14T07:23:56;99026.94;;;7.97;100.00
71735;BME280;59577;52.122;5.406;2023-03-14T07:26:30;99040.75;;;7.92;100.00
71735;BME280;59577;52.122;5.406;2023-03-14T07:28:58;99060.34;;;7.85;100.00
71735;BME280;59577;52.122;5.406;2023-03-14T07:31:25;99068.41;;;7.78;100.00
71735;BME280;59577;52.122;5.406;2023-03-14T07:33:52;99070.69;;;7.72;100.00
71735;BME280;59577;52.122;5.406;2023-03-14T07:36:19;99091.81;;;7.70;100.00
71735;BME280;59577;52.122;5.406;2023-03-14T07:52:54;99159.44;;;7.58;100.00
71735;BME280;59577;52.122;5.406;2023-03-14T07:55:22;99164.81;;;7.58;100.00
71735;BME280;59577;52.122;5.406;2023-03-14T07:57:50;99174.81;;;7.58;100.00
71735;BME280;59577;52.122;5.406;2023-03-14T08:00:17;99177.50;;;7.58;100.00
71735;BME280;59577;52.122;5.406;2023-03-14T08:02:44;99194.06;;;7.60;100.00
71735;BME280;59577;52.122;5.406;2023-03-14T08:05:11;99227.81;;;7.50;100.00
71735;BME280;59577;52.122;5.406;2023-03-14T08:07:38;99241.91;;;7.36;100.00
71735;BME280;59577;52.122;5.406;2023-03-14T08:10:19;99249.19;;;7.32;100.00
71735;BME280;59577;52.122;5.406;2023-03-14T08:13:15;99272.22;;;7.29;100.00
71735;BME280;59577;52.122;5.406;2023-03-14T08:16:01;99293.75;;;7.29;100.00
71735;BME280;59577;52.122;5.406;2023-03-14T08:19:01;99301.03;;;7.25;99.67
71735;BME280;59577;52.122;5.406;2023-03-14T10:07:53;99720.47;;;7.93;96.01
71735;BME280;59577;52.122;5.406;2023-03-14T10:10:22;99726.06;;;8.07;95.75
71735;BME280;59577;52.122;5.406;2023-03-14T10:15:37;99754.19;;;8.09;96.75
71735;BME280;59577;52.122;5.406;2023-03-14T10:18:10;99774.13;;;8.01;96.97
71735;BME280;59577;52.122;5.406;2023-03-14T10:21:05;99785.56;;;7.95;95.91
71735;BME280;59577;52.122;5.406;2023-03-14T10:23:38;99803.69;;;7.98;96.03
71735;BME280;59577;52.122;5.406;2023-03-14T10:26:08;99811.84;;;8.01;95.46
71735;BME280;59577;52.122;5.406;2023-03-14T10:28:53;99823.56;;;8.13;95.16
71735;BME280;59577;52.122;5.406;2023-03-14T10:31:25;99825.94;;;8.41;94.29
71735;BME280;59577;52.122;5.406;2023-03-14T10:34:03;99828.13;;;8.55;93.36
71735;BME280;59577;52.122;5.406;2023-03-14T10:36:34;99847.97;;;8.70;93.11
71735;BME280;59577;52.122;5.406;2023-03-14T10:39:40;99859.19;;;8.72;91.49
71735;BME280;59577;52.122;5.406;2023-03-14T10:42:21;99874.34;;;8.53;91.12
71735;BME280;59577;52.122;5.406;2023-03-14T10:44:56;99875.88;;;8.31;92.64
71735;BME280;59577;52.122;5.406;2023-03-14T10:47:25;99901.44;;;8.18;91.67
71735;BME280;59577;52.122;5.406;2023-03-14T10:55:20;99933.91;;;7.82;90.66
71735;BME280;59577;52.122;5.406;2023-03-14T11:19:10;100015.06;;;7.81;88.89
71735;BME280;59577;52.122;5.406;2023-03-14T11:39:17;100091.47;;;9.82;82.41
71735;BME280;59577;52.122;5.406;2023-03-14T11:41:53;100094.88;;;10.32;79.84
71735;BME280;59577;52.122;5.406;2023-03-14T11:50:31;100108.34;;;11.00;74.92
71735;BME280;59577;52.122;5.406;2023-03-14T11:53:34;100115.78;;;11.07;74.42
71735;BME280;59577;52.122;5.406;2023-03-14T11:56:14;100127.59;;;11.29;73.62
71735;BME280;59577;52.122;5.406;2023-03-14T12:01:39;100125.16;;;11.17;71.74
71735;BME280;59577;52.122;5.406;2023-03-14T12:06:50;100136.06;;;10.86;72.65
71735;BME280;59577;52.122;5.406;2023-03-14T12:09:24;100155.38;;;10.51;72.18
71735;BME280;59577;52.122;5.406;2023-03-14T12:12:00;100157.50;;;10.34;70.82
71735;BME280;59577;52.122;5.406;2023-03-14T12:14:30;100158.34;;;10.39;71.95
71735;BME280;59577;52.122;5.406;2023-03-14T12:17:07;100163.34;;;10.70;71.92
71735;BME280;59577;52.122;5.406;2023-03-14T12:19:46;100175.28;;;11.00;72.75
71735;BME280;59577;52.122;5.406;2023-03-14T12:25:33;100187.47;;;10.83;72.09
71735;BME280;59577;52.122;5.406;2023-03-14T12:28:21;100203.72;;;10.83;70.94
71735;BME280;59577;52.122;5.406;2023-03-14T12:39:45;100218.25;;;10.71;69.29
71735;BME280;59577;52.122;5.406;2023-03-14T12:46:06;100225.63;;;11.04;68.33
71735;BME280;59577;52.122;5.406;2023-03-14T12:48:39;100229.44;;;11.00;66.71
71735;BME280;59577;52.122;5.406;2023-03-14T12:51:18;100237.41;;;10.85;64.81
71735;BME280;59577;52.122;5.406;2023-03-14T12:59:36;100263.75;;;10.31;64.33
71735;BME280;59577;52.122;5.406;2023-03-14T13:02:17;100267.22;;;10.09;63.75
71735;BME280;59577;52.122;5.406;2023-03-14T13:05:10;100275.09;;;9.94;63.88
71735;BME280;59577;52.122;5.406;2023-03-14T13:10:30;100289.00;;;9.96;63.23
71735;BME280;59577;52.122;5.406;2023-03-14T13:13:20;100301.00;;;9.95;62.12
71735;BME280;59577;52.122;5.406;2023-03-14T13:15:54;100303.94;;;10.10;62.30
71735;BME280;59577;52.122;5.406;2023-03-14T13:18:47;100293.72;;;10.23;62.29
71735;BME280;59577;52.122;5.406;2023-03-14T13:21:21;100314.91;;;10.21;61.77
71735;BME280;59577;52.122;5.406;2023-03-14T13:24:07;100322.72;;;10.26;61.54
71735;BME280;59577;52.122;5.406;2023-03-14T13:26:39;100314.09;;;10.16;61.40
71735;BME280;59577;52.122;5.406;2023-03-14T13:29:19;100336.44;;;10.13;60.80
71735;BME280;59577;52.122;5.406;2023-03-14T13:31:55;100346.25;;;9.98;60.00
71735;BME280;59577;52.122;5.406;2023-03-14T13:34:42;100347.53;;;10.08;61.45
71735;BME280;59577;52.122;5.406;2023-03-14T13:37:30;100354.81;;;10.04;60.42
71735;BME280;59577;52.122;5.406;2023-03-14T13:39:58;100363.03;;;9.88;61.44
71735;BME280;59577;52.122;5.406;2023-03-14T13:42:29;100370.50;;;9.75;61.07
71735;BME280;59577;52.122;5.406;2023-03-14T13:45:03;100371.94;;;9.89;61.33
71735;BME280;59577;52.122;5.406;2023-03-14T13:47:30;100383.94;;;9.91;60.89
71735;BME280;59577;52.122;5.406;2023-03-14T13:49:58;100381.09;;;10.04;59.63
71735;BME280;59577;52.122;5.406;2023-03-14T13:52:37;100385.75;;;10.07;59.32
71735;BME280;59577;52.122;5.406;2023-03-14T13:55:12;100394.69;;;10.07;59.95
71735;BME280;59577;52.122;5.406;2023-03-14T13:57:52;100399.72;;;10.09;60.33
71735;BME280;59577;52.122;5.406;2023-03-14T14:00:27;100417.13;;;9.88;60.21
71735;BME280;59577;52.122;5.406;2023-03-14T14:02:58;100417.63;;;9.74;60.19
71735;BME280;59577;52.122;5.406;2023-03-14T14:05:28;100426.28;;;9.84;60.78
71735;BME280;59577;52.122;5.406;2023-03-14T14:07:59;100426.19;;;10.00;60.84
71735;BME280;59577;52.122;5.406;2023-03-14T14:10:28;100445.75;;;9.93;61.50
71735;BME280;59577;52.122;5.406;2023-03-14T14:13:03;100451.25;;;9.77;61.68
71735;BME280;59577;52.122;5.406;2023-03-14T14:15:43;100461.22;;;9.73;61.87
71735;BME280;59577;52.122;5.406;2023-03-14T14:18:13;100478.06;;;9.66;61.06
71735;BME280;59577;52.122;5.406;2023-03-14T14:20:49;100469.94;;;9.66;60.99
71735;BME280;59577;52.122;5.406;2023-03-14T14:23:20;100479.53;;;9.64;61.20
71735;BME280;59577;52.122;5.406;2023-03-14T14:25:55;100488.22;;;9.53;60.33
71735;BME280;59577;52.122;5.406;2023-03-14T14:28:27;100497.09;;;9.54;60.59
71735;BME280;59577;52.122;5.406;2023-03-14T14:33:44;100509.75;;;9.34;61.17
71735;BME280;59577;52.122;5.406;2023-03-14T14:36:20;100506.19;;;9.30;60.54
71735;BME280;59577;52.122;5.406;2023-03-14T14:38:54;100512.47;;;9.18;59.67
71735;BME280;59577;52.122;5.406;2023-03-14T14:41:27;100525.47;;;9.12;60.79
71735;BME280;59577;52.122;5.406;2023-03-14T14:43:57;100541.50;;;9.05;60.71
71735;BME280;59577;52.122;5.406;2023-03-14T14:46:30;100531.13;;;9.07;59.87
71735;BME280;59577;52.122;5.406;2023-03-14T14:49:03;100540.63;;;9.01;60.30
71735;BME280;59577;52.122;5.406;2023-03-14T14:51:33;100543.13;;;8.94;61.03
71735;BME280;59577;52.122;5.406;2023-03-14T14:54:11;100554.53;;;8.87;60.83
71735;BME280;59577;52.122;5.406;2023-03-14T14:56:39;100551.22;;;8.78;60.77
71735;BME280;59577;52.122;5.406;2023-03-14T14:59:20;100569.50;;;8.69;59.17
71735;BME280;59577;52.122;5.406;2023-03-14T15:02:02;100574.25;;;8.59;59.56
71735;BME280;59577;52.122;5.406;2023-03-14T15:04:30;100578.53;;;8.60;59.63
71735;BME280;59577;52.122;5.406;2023-03-14T15:06:58;100576.16;;;8.59;60.02
71735;BME280;59577;52.122;5.406;2023-03-14T15:09:26;100589.91;;;8.54;59.58
71735;BME280;59577;52.122;5.406;2023-03-14T15:11:52;100592.31;;;8.43;60.03
71735;BME280;59577;52.122;5.406;2023-03-14T15:14:19;100603.31;;;8.38;59.86
71735;BME280;59577;52.122;5.406;2023-03-14T15:16:45;100607.69;;;8.30;59.98
71735;BME280;59577;52.122;5.406;2023-03-14T15:19:20;100618.16;;;8.32;59.96
71735;BME280;59577;52.122;5.406;2023-03-14T15:21:51;100613.44;;;8.28;60.13
71735;BME280;59577;52.122;5.406;2023-03-14T15:24:18;100615.47;;;8.19;60.54
71735;BME280;59577;52.122;5.406;2023-03-14T15:26:45;100633.47;;;8.15;60.70
71735;BME280;59577;52.122;5.406;2023-03-14T15:29:14;100634.03;;;8.08;60.95
71735;BME280;59577;52.122;5.406;2023-03-14T15:31:41;100630.81;;;8.03;60.15
71735;BME280;59577;52.122;5.406;2023-03-14T15:34:10;100640.22;;;8.09;60.75
71735;BME280;59577;52.122;5.406;2023-03-14T15:36:38;100644.72;;;8.05;60.11
71735;BME280;59577;52.122;5.406;2023-03-14T15:39:06;100649.53;;;7.99;60.51
71735;BME280;59577;52.122;5.406;2023-03-14T15:41:33;100653.94;;;7.91;60.93
71735;BME280;59577;52.122;5.406;2023-03-14T15:44:01;100665.25;;;7.85;61.07
71735;BME280;59577;52.122;5.406;2023-03-14T15:46:28;100664.28;;;7.77;60.60
71735;BME280;59577;52.122;5.406;2023-03-14T15:48:56;100670.66;;;7.72;61.00
71735;BME280;59577;52.122;5.406;2023-03-14T15:51:23;100677.72;;;7.65;60.63
71735;BME280;59577;52.122;5.406;2023-03-14T15:53:49;100680.16;;;7.58;60.71
71735;BME280;59577;52.122;5.406;2023-03-14T15:56:19;100684.78;;;7.57;60.86
71735;BME280;59577;52.122;5.406;2023-03-14T15:58:46;100697.56;;;7.48;60.40
71735;BME280;59577;52.122;5.406;2023-03-14T16:01:16;100706.50;;;7.40;60.50
71735;BME280;59577;52.122;5.406;2023-03-14T16:03:43;100707.50;;;7.35;60.49
71735;BME280;59577;52.122;5.406;2023-03-14T16:06:14;100712.88;;;7.35;60.72
71735;BME280;59577;52.122;5.406;2023-03-14T16:08:56;100704.81;;;7.35;60.33
71735;BME280;59577;52.122;5.406;2023-03-14T16:11:23;100717.28;;;7.40;60.77
71735;BME280;59577;52.122;5.406;2023-03-14T16:13:51;100718.88;;;7.41;59.77
71735;BME280;59577;52.122;5.406;2023-03-14T16:16:18;100724.13;;;7.37;60.32
71735;BME280;59577;52.122;5.406;2023-03-14T16:18:45;100724.00;;;7.33;60.99
71735;BME280;59577;52.122;5.406;2023-03-14T16:21:16;100727.91;;;7.24;61.21
71735;BME280;59577;52.122;5.406;2023-03-14T16:23:43;100732.56;;;7.14;61.39
71735;BME280;59577;52.122;5.406;2023-03-14T16:26:12;100741.19;;;7.08;61.09
71735;BME280;59577;52.122;5.406;2023-03-14T16:28:41;100747.56;;;7.03;61.12
71735;BME280;59577;52.122;5.406;2023-03-14T16:31:10;100752.34;;;6.97;60.91
71735;BME280;59577;52.122;5.406;2023-03-14T16:33:38;100757.59;;;6.94;61.56
71735;BME280;59577;52.122;5.406;2023-03-14T16:36:07;100757.81;;;6.89;61.68
71735;BME280;59577;52.122;5.406;2023-03-14T16:38:38;100768.44;;;6.85;61.95
71735;BME280;59577;52.122;5.406;2023-03-14T16:41:13;100768.44;;;6.85;62.22
71735;BME280;59577;52.122;5.406;2023-03-14T16:43:41;100771.31;;;6.80;62.04
71735;BME280;59577;52.122;5.406;2023-03-14T16:46:16;100788.44;;;6.75;62.56
71735;BME280;59577;52.122;5.406;2023-03-14T16:48:43;100800.66;;;6.64;62.30
71735;BME280;59577;52.122;5.406;2023-03-14T16:51:10;100798.84;;;6.56;62.10
71735;BME280;59577;52.122;5.406;2023-03-14T16:53:37;100802.63;;;6.55;62.97
71735;BME280;59577;52.122;5.406;2023-03-14T16:56:04;100809.47;;;6.52;63.38
71735;BME280;59577;52.122;5.406;2023-03-14T16:58:34;100813.88;;;6.48;63.96
71735;BME280;59577;52.122;5.406;2023-03-14T17:01:09;100821.69;;;6.41;62.75
71735;BME280;59577;52.122;5.406;2023-03-14T17:03:40;100825.31;;;6.36;63.63
71735;BME280;59577;52.122;5.406;2023-03-14T17:06:13;100823.47;;;6.28;63.25
71735;BME280;59577;52.122;5.406;2023-03-14T17:08:41;100825.22;;;6.24;63.51
71735;BME280;59577;52.122;5.406;2023-03-14T17:11:08;100834.25;;;6.19;62.60
71735;BME280;59577;52.122;5.406;2023-03-14T17:13:35;100838.06;;;6.18;62.67
71735;BME280;59577;52.122;5.406;2023-03-14T17:16:28;100833.47;;;6.19;62.83
71735;BME280;59577;52.122;5.406;2023-03-14T17:19:02;100843.25;;;6.24;63.97
71735;BME280;59577;52.122;5.406;2023-03-14T17:21:29;100844.84;;;6.25;63.49
71735;BME280;59577;52.122;5.406;2023-03-14T17:23:56;100842.66;;;6.18;63.73
71735;BME280;59577;52.122;5.406;2023-03-14T17:31:54;100854.53;;;5.91;63.14
71735;BME280;59577;52.122;5.406;2023-03-14T17:34:21;100857.88;;;5.79;62.98
71735;BME280;59577;52.122;5.406;2023-03-14T17:36:48;100859.16;;;5.73;63.17
71735;BME280;59577;52.122;5.406;2023-03-14T17:39:14;100868.78;;;5.65;63.62
71735;BME280;59577;52.122;5.406;2023-03-14T17:41:41;100881.44;;;5.56;63.71
71735;BME280;59577;52.122;5.406;2023-03-14T17:44:07;100880.47;;;5.43;63.91
71735;BME280;59577;52.122;5.406;2023-03-14T17:46:35;100895.16;;;5.37;64.24
71735;BME280;59577;52.122;5.406;2023-03-14T17:49:02;100897.03;;;5.27;64.25
71735;BME280;59577;52.122;5.406;2023-03-14T17:51:31;100906.66;;;5.20;64.22
71735;BME280;59577;52.122;5.406;2023-03-14T17:56:39;100912.94;;;5.06;64.82
71735;BME280;59577;52.122;5.406;2023-03-14T18:01:54;100915.88;;;4.87;64.14
71735;BME280;59577;52.122;5.406;2023-03-14T18:04:24;100916.31;;;4.81;64.37
71735;BME280;59577;52.122;5.406;2023-03-14T18:09:40;100932.81;;;4.65;65.24
71735;BME280;59577;52.122;5.406;2023-03-14T18:12:08;100944.50;;;4.61;65.42